sensor_id;sensor_type;location;lat;lon;timestamp;P1;durP1;ratioP1;P2;durP2;ratioP2
18082;SDS011;9168;51.194;6.840;2023-07-31T00:00:50;17.13;;;4.50;;
18082;SDS011;9168;51.194;6.840;2023-07-31T00:03:18;17.20;;;4.60;;
18082;SDS011;9168;51.194;6.840;2023-07-31T00:05:45;14.30;;;4.97;;
18082;SDS011;9168;51.194;6.840;2023-07-31T00:08:12;18.30;;;4.95;;
18082;SDS011;9168;51.194;6.840;2023-07-31T00:10:39;20.50;;;4.95;;
18082;SDS011;9168;51.194;6.840;2023-07-31T00:13:05;18.20;;;4.63;;
18082;SDS011;9168;51.194;6.840;2023-07-31T00:15:32;10.88;;;4.40;;
18082;SDS011;9168;51.194;6.840;2023-07-31T00:17:59;16.50;;;4.65;;
18082;SDS011;9168;51.194;6.840;2023-07-31T00:20:28;19.25;;;5.15;;
18082;SDS011;9168;51.194;6.840;2023-07-31T00:22:55;14.90;;;4.80;;
18082;SDS011;9168;51.194;6.840;2023-07-31T00:25:21;17.15;;;4.90;;
18082;SDS011;9168;51.194;6.840;2023-07-31T00:27:48;13.43;;;4.63;;
18082;SDS011;9168;51.194;6.840;2023-07-31T00:30:15;13.35;;;4.43;;
18082;SDS011;9168;51.194;6.840;2023-07-31T00:32:41;16.83;;;4.72;;
18082;SDS011;9168;51.194;6.840;2023-07-31T00:35:08;13.15;;;4.50;;
18082;SDS011;9168;51.194;6.840;2023-07-31T00:37:37;13.40;;;4.30;;
18082;SDS011;9168;51.194;6.840;2023-07-31T00:40:04;23.33;;;5.00;;
18082;SDS011;9168;51.194;6.840;2023-07-31T00:42:31;26.52;;;4.82;;
18082;SDS011;9168;51.194;6.840;2023-07-31T00:44:58;18.70;;;5.38;;
18082;SDS011;9168;51.194;6.840;2023-07-31T00:47:25;12.88;;;4.55;;
18082;SDS011;9168;51.194;6.840;2023-07-31T00:49:52;15.07;;;3.88;;
18082;SDS011;9168;51.194;6.840;2023-07-31T00:52:19;16.30;;;4.82;;
18082;SDS011;9168;51.194;6.840;2023-07-31T00:54:48;14.43;;;4.55;;
18082;SDS011;9168;51.194;6.840;2023-07-31T00:57:16;19.77;;;4.95;;
18082;SDS011;9168;51.194;6.840;2023-07-31T00:59:43;11.93;;;4.72;;
18082;SDS011;9168;51.194;6.840;2023-07-31T01:02:11;17.70;;;4.90;;
18082;SDS011;9168;51.194;6.840;2023-07-31T01:04:38;19.30;;;4.45;;
18082;SDS011;9168;51.194;6.840;2023-07-31T01:07:07;20.88;;;5.30;;
18082;SDS011;9168;51.194;6.840;2023-07-31T01:09:42;17.55;;;4.93;;
18082;SDS011;9168;51.194;6.840;2023-07-31T01:12:14;12.43;;;3.90;;
18082;SDS011;9168;51.194;6.840;2023-07-31T01:14:50;18.10;;;4.68;;
18082;SDS011;9168;51.194;6.840;2023-07-31T01:17:17;21.35;;;4.60;;
18082;SDS011;9168;51.194;6.840;2023-07-31T01:19:44;15.52;;;4.35;;
18082;SDS011;9168;51.194;6.840;2023-07-31T01:22:16;16.88;;;4.57;;
18082;SDS011;9168;51.194;6.840;2023-07-31T01:25:00;13.20;;;4.57;;
18082;SDS011;9168;51.194;6.840;2023-07-31T01:27:42;16.52;;;4.70;;
18082;SDS011;9168;51.194;6.840;2023-07-31T01:30:16;19.65;;;5.28;;
18082;SDS011;9168;51.194;6.840;2023-07-31T01:32:48;18.83;;;5.03;;
18082;SDS011;9168;51.194;6.840;2023-07-31T01:35:16;20.25;;;5.28;;
18082;SDS011;9168;51.194;6.840;2023-07-31T01:37:43;18.60;;;5.05;;
18082;SDS011;9168;51.194;6.840;2023-07-31T01:40:11;17.33;;;5.25;;
18082;SDS011;9168;51.194;6.840;2023-07-31T01:42:38;19.63;;;4.72;;
18082;SDS011;9168;51.194;6.840;2023-07-31T01:45:07;17.15;;;5.00;;
18082;SDS011;9168;51.194;6.840;2023-07-31T01:47:34;18.15;;;5.72;;
18082;SDS011;9168;51.194;6.840;2023-07-31T01:50:01;17.50;;;4.97;;
18082;SDS011;9168;51.194;6.840;2023-07-31T01:52:28;17.30;;;5.22;;
18082;SDS011;9168;51.194;6.840;2023-07-31T01:54:55;19.05;;;4.82;;
18082;SDS011;9168;51.194;6.840;2023-07-31T01:57:22;23.98;;;5.20;;
18082;SDS011;9168;51.194;6.840;2023-07-31T01:59:49;23.02;;;4.97;;
18082;SDS011;9168;51.194;6.840;2023-07-31T02:02:19;15.85;;;4.75;;
18082;SDS011;9168;51.194;6.840;2023-07-31T02:04:48;13.65;;;4.50;;
18082;SDS011;9168;51.194;6.840;2023-07-31T02:07:15;21.50;;;5.38;;
18082;SDS011;9168;51.194;6.840;2023-07-31T02:09:41;14.93;;;4.65;;
18082;SDS011;9168;51.194;6.840;2023-07-31T02:12:08;13.73;;;5.10;;
18082;SDS011;9168;51.194;6.840;2023-07-31T02:14:35;21.67;;;5.70;;
18082;SDS011;9168;51.194;6.840;2023-07-31T02:17:02;15.90;;;4.70;;
18082;SDS011;9168;51.194;6.840;2023-07-31T02:19:30;18.35;;;4.82;;
18082;SDS011;9168;51.194;6.840;2023-07-31T02:21:57;18.20;;;5.30;;
18082;SDS011;9168;51.194;6.840;2023-07-31T02:24:24;18.73;;;4.30;;
18082;SDS011;9168;51.194;6.840;2023-07-31T02:26:51;20.83;;;5.03;;
18082;SDS011;9168;51.194;6.840;2023-07-31T02:29:18;17.73;;;5.13;;
18082;SDS011;9168;51.194;6.840;2023-07-31T02:31:45;19.30;;;5.20;;
18082;SDS011;9168;51.194;6.840;2023-07-31T02:34:12;17.15;;;5.28;;
18082;SDS011;9168;51.194;6.840;2023-07-31T02:36:40;18.52;;;5.05;;
18082;SDS011;9168;51.194;6.840;2023-07-31T02:39:07;15.77;;;4.82;;
18082;SDS011;9168;51.194;6.840;2023-07-31T02:41:34;17.48;;;4.57;;
18082;SDS011;9168;51.194;6.840;2023-07-31T02:44:00;21.77;;;4.53;;
18082;SDS011;9168;51.194;6.840;2023-07-31T02:46:27;16.67;;;5.30;;
18082;SDS011;9168;51.194;6.840;2023-07-31T02:48:54;22.40;;;4.82;;
18082;SDS011;9168;51.194;6.840;2023-07-31T02:51:21;14.02;;;4.53;;
18082;SDS011;9168;51.194;6.840;2023-07-31T02:53:49;14.82;;;5.28;;
18082;SDS011;9168;51.194;6.840;2023-07-31T02:56:16;18.65;;;5.60;;
18082;SDS011;9168;51.194;6.840;2023-07-31T02:58:43;17.77;;;5.63;;
18082;SDS011;9168;51.194;6.840;2023-07-31T03:01:10;22.17;;;6.05;;
18082;SDS011;9168;51.194;6.840;2023-07-31T03:03:37;16.90;;;5.00;;
18082;SDS011;9168;51.194;6.840;2023-07-31T03:06:04;15.98;;;5.72;;
18082;SDS011;9168;51.194;6.840;2023-07-31T03:08:31;16.65;;;5.40;;
18082;SDS011;9168;51.194;6.840;2023-07-31T03:10:59;19.90;;;4.80;;
18082;SDS011;9168;51.194;6.840;2023-07-31T03:13:26;18.92;;;5.53;;
18082;SDS011;9168;51.194;6.840;2023-07-31T03:15:53;19.10;;;4.72;;
18082;SDS011;9168;51.194;6.840;2023-07-31T03:18:20;15.82;;;4.47;;
18082;SDS011;9168;51.194;6.840;2023-07-31T03:20:46;15.15;;;4.97;;
18082;SDS011;9168;51.194;6.840;2023-07-31T03:23:13;16.00;;;4.57;;
18082;SDS011;9168;51.194;6.840;2023-07-31T03:25:41;16.58;;;4.88;;
18082;SDS011;9168;51.194;6.840;2023-07-31T03:28:23;15.27;;;4.93;;
18082;SDS011;9168;51.194;6.840;2023-07-31T03:30:50;19.42;;;5.55;;
18082;SDS011;9168;51.194;6.840;2023-07-31T03:33:18;17.45;;;4.82;;
18082;SDS011;9168;51.194;6.840;2023-07-31T03:35:45;16.67;;;4.43;;
18082;SDS011;9168;51.194;6.840;2023-07-31T03:38:12;19.52;;;4.65;;
18082;SDS011;9168;51.194;6.840;2023-07-31T03:40:39;24.80;;;4.85;;
18082;SDS011;9168;51.194;6.840;2023-07-31T03:43:06;16.27;;;4.72;;
18082;SDS011;9168;51.194;6.840;2023-07-31T03:45:34;18.35;;;5.30;;
18082;SDS011;9168;51.194;6.840;2023-07-31T03:48:01;13.25;;;4.93;;
18082;SDS011;9168;51.194;6.840;2023-07-31T03:50:28;13.85;;;5.45;;
18082;SDS011;9168;51.194;6.840;2023-07-31T03:52:55;15.35;;;5.13;;
18082;SDS011;9168;51.194;6.840;2023-07-31T03:55:22;19.73;;;5.55;;
18082;SDS011;9168;51.194;6.840;2023-07-31T03:57:49;23.42;;;5.22;;
18082;SDS011;9168;51.194;6.840;2023-07-31T04:00:16;23.77;;;5.63;;
18082;SDS011;9168;51.194;6.840;2023-07-31T04:02:44;20.60;;;5.10;;
18082;SDS011;9168;51.194;6.840;2023-07-31T04:05:11;14.10;;;4.95;;
18082;SDS011;9168;51.194;6.840;2023-07-31T04:07:38;22.95;;;5.82;;
18082;SDS011;9168;51.194;6.840;2023-07-31T04:10:05;21.58;;;5.22;;
18082;SDS011;9168;51.194;6.840;2023-07-31T04:12:32;19.83;;;5.90;;
18082;SDS011;9168;51.194;6.840;2023-07-31T04:14:59;19.15;;;6.15;;
18082;SDS011;9168;51.194;6.840;2023-07-31T04:17:26;15.20;;;5.63;;
18082;SDS011;9168;51.194;6.840;2023-07-31T04:19:54;14.98;;;5.35;;
18082;SDS011;9168;51.194;6.840;2023-07-31T04:22:21;12.30;;;5.00;;
18082;SDS011;9168;51.194;6.840;2023-07-31T04:24:48;17.90;;;5.03;;
18082;SDS011;9168;51.194;6.840;2023-07-31T04:27:15;13.75;;;5.70;;
18082;SDS011;9168;51.194;6.840;2023-07-31T04:29:42;17.52;;;5.57;;
18082;SDS011;9168;51.194;6.840;2023-07-31T04:32:11;16.92;;;5.90;;
18082;SDS011;9168;51.194;6.840;2023-07-31T04:34:38;17.05;;;5.80;;
18082;SDS011;9168;51.194;6.840;2023-07-31T04:37:06;17.05;;;5.85;;
18082;SDS011;9168;51.194;6.840;2023-07-31T04:39:33;16.38;;;5.95;;
18082;SDS011;9168;51.194;6.840;2023-07-31T04:42:00;15.57;;;5.45;;
18082;SDS011;9168;51.194;6.840;2023-07-31T04:44:26;19.98;;;5.25;;
18082;SDS011;9168;51.194;6.840;2023-07-31T04:46:53;13.10;;;5.28;;
18082;SDS011;9168;51.194;6.840;2023-07-31T04:49:20;17.83;;;5.10;;
18082;SDS011;9168;51.194;6.840;2023-07-31T04:51:47;15.85;;;5.28;;
18082;SDS011;9168;51.194;6.840;2023-07-31T04:54:15;17.35;;;5.00;;
18082;SDS011;9168;51.194;6.840;2023-07-31T04:56:42;14.60;;;5.63;;
18082;SDS011;9168;51.194;6.840;2023-07-31T04:59:09;11.27;;;5.05;;
18082;SDS011;9168;51.194;6.840;2023-07-31T05:01:36;15.95;;;5.22;;
18082;SDS011;9168;51.194;6.840;2023-07-31T05:04:03;18.10;;;5.30;;
18082;SDS011;9168;51.194;6.840;2023-07-31T05:06:30;15.13;;;5.47;;
18082;SDS011;9168;51.194;6.840;2023-07-31T05:08:57;17.52;;;5.70;;
18082;SDS011;9168;51.194;6.840;2023-07-31T05:11:25;14.90;;;5.60;;
18082;SDS011;9168;51.194;6.840;2023-07-31T05:13:52;13.07;;;5.25;;
18082;SDS011;9168;51.194;6.840;2023-07-31T05:16:19;17.77;;;5.85;;
18082;SDS011;9168;51.194;6.840;2023-07-31T05:18:46;13.80;;;5.47;;
18082;SDS011;9168;51.194;6.840;2023-07-31T05:21:12;18.08;;;5.93;;
18082;SDS011;9168;51.194;6.840;2023-07-31T05:23:39;15.25;;;4.80;;
18082;SDS011;9168;51.194;6.840;2023-07-31T05:26:06;17.15;;;5.70;;
18082;SDS011;9168;51.194;6.840;2023-07-31T05:28:36;15.10;;;5.40;;
18082;SDS011;9168;51.194;6.840;2023-07-31T05:31:03;12.07;;;4.97;;
18082;SDS011;9168;51.194;6.840;2023-07-31T05:33:31;14.70;;;5.00;;
18082;SDS011;9168;51.194;6.840;2023-07-31T05:35:59;13.85;;;4.38;;
18082;SDS011;9168;51.194;6.840;2023-07-31T05:38:26;12.82;;;5.35;;
18082;SDS011;9168;51.194;6.840;2023-07-31T05:40:52;14.32;;;5.45;;
18082;SDS011;9168;51.194;6.840;2023-07-31T05:43:20;16.17;;;5.53;;
18082;SDS011;9168;51.194;6.840;2023-07-31T05:45:49;17.65;;;5.55;;
18082;SDS011;9168;51.194;6.840;2023-07-31T05:48:18;14.52;;;5.35;;
18082;SDS011;9168;51.194;6.840;2023-07-31T05:50:44;20.83;;;5.18;;
18082;SDS011;9168;51.194;6.840;2023-07-31T05:53:11;12.90;;;4.88;;
18082;SDS011;9168;51.194;6.840;2023-07-31T05:55:38;14.43;;;4.97;;
18082;SDS011;9168;51.194;6.840;2023-07-31T05:58:05;16.73;;;5.45;;
18082;SDS011;9168;51.194;6.840;2023-07-31T06:00:32;17.33;;;5.07;;
18082;SDS011;9168;51.194;6.840;2023-07-31T06:03:00;16.08;;;5.10;;
18082;SDS011;9168;51.194;6.840;2023-07-31T06:05:27;20.58;;;5.30;;
18082;SDS011;9168;51.194;6.840;2023-07-31T06:07:55;11.63;;;4.60;;
18082;SDS011;9168;51.194;6.840;2023-07-31T06:10:22;15.73;;;4.78;;
18082;SDS011;9168;51.194;6.840;2023-07-31T06:12:49;9.88;;;4.53;;
18082;SDS011;9168;51.194;6.840;2023-07-31T06:15:15;14.60;;;5.03;;
18082;SDS011;9168;51.194;6.840;2023-07-31T06:17:44;12.40;;;4.80;;
18082;SDS011;9168;51.194;6.840;2023-07-31T06:20:12;15.75;;;4.82;;
18082;SDS011;9168;51.194;6.840;2023-07-31T06:22:39;12.52;;;4.80;;
18082;SDS011;9168;51.194;6.840;2023-07-31T06:25:06;13.02;;;4.95;;
18082;SDS011;9168;51.194;6.840;2023-07-31T06:27:33;14.18;;;4.72;;
18082;SDS011;9168;51.194;6.840;2023-07-31T06:30:00;13.57;;;4.47;;
18082;SDS011;9168;51.194;6.840;2023-07-31T06:32:27;13.38;;;4.63;;
18082;SDS011;9168;51.194;6.840;2023-07-31T06:34:54;15.95;;;5.35;;
18082;SDS011;9168;51.194;6.840;2023-07-31T06:37:22;13.95;;;4.95;;
18082;SDS011;9168;51.194;6.840;2023-07-31T06:39:49;14.18;;;5.28;;
18082;SDS011;9168;51.194;6.840;2023-07-31T06:42:16;16.45;;;5.45;;
18082;SDS011;9168;51.194;6.840;2023-07-31T06:44:43;13.23;;;4.50;;
18082;SDS011;9168;51.194;6.840;2023-07-31T06:47:10;17.15;;;5.18;;
18082;SDS011;9168;51.194;6.840;2023-07-31T06:49:37;11.85;;;4.68;;
18082;SDS011;9168;51.194;6.840;2023-07-31T06:52:04;14.40;;;4.88;;
18082;SDS011;9168;51.194;6.840;2023-07-31T06:54:32;18.17;;;5.18;;
18082;SDS011;9168;51.194;6.840;2023-07-31T06:56:59;14.40;;;4.95;;
18082;SDS011;9168;51.194;6.840;2023-07-31T06:59:26;18.63;;;5.57;;
18082;SDS011;9168;51.194;6.840;2023-07-31T07:01:53;12.13;;;3.97;;
18082;SDS011;9168;51.194;6.840;2023-07-31T07:04:20;11.20;;;4.57;;
18082;SDS011;9168;51.194;6.840;2023-07-31T07:06:47;11.85;;;5.03;;
18082;SDS011;9168;51.194;6.840;2023-07-31T07:09:14;16.23;;;4.68;;
18082;SDS011;9168;51.194;6.840;2023-07-31T07:11:42;16.20;;;5.22;;
18082;SDS011;9168;51.194;6.840;2023-07-31T07:14:09;11.23;;;4.03;;
18082;SDS011;9168;51.194;6.840;2023-07-31T07:16:36;14.98;;;4.72;;
18082;SDS011;9168;51.194;6.840;2023-07-31T07:19:06;16.15;;;4.78;;
18082;SDS011;9168;51.194;6.840;2023-07-31T07:21:32;13.90;;;4.72;;
18082;SDS011;9168;51.194;6.840;2023-07-31T07:23:59;14.75;;;4.78;;
18082;SDS011;9168;51.194;6.840;2023-07-31T07:26:26;11.55;;;4.57;;
18082;SDS011;9168;51.194;6.840;2023-07-31T07:28:54;16.48;;;4.97;;
18082;SDS011;9168;51.194;6.840;2023-07-31T07:31:22;15.02;;;4.78;;
18082;SDS011;9168;51.194;6.840;2023-07-31T07:33:49;13.80;;;4.88;;
18082;SDS011;9168;51.194;6.840;2023-07-31T07:36:16;14.55;;;5.07;;
18082;SDS011;9168;51.194;6.840;2023-07-31T07:38:43;14.77;;;4.95;;
18082;SDS011;9168;51.194;6.840;2023-07-31T07:41:11;21.40;;;4.75;;
18082;SDS011;9168;51.194;6.840;2023-07-31T07:43:38;15.10;;;5.53;;
18082;SDS011;9168;51.194;6.840;2023-07-31T07:46:06;13.93;;;5.15;;
18082;SDS011;9168;51.194;6.840;2023-07-31T07:48:33;15.90;;;5.03;;
18082;SDS011;9168;51.194;6.840;2023-07-31T07:51:00;13.90;;;4.60;;
18082;SDS011;9168;51.194;6.840;2023-07-31T07:53:27;12.20;;;4.78;;
18082;SDS011;9168;51.194;6.840;2023-07-31T07:55:53;13.90;;;4.80;;
18082;SDS011;9168;51.194;6.840;2023-07-31T07:58:20;17.15;;;4.88;;
18082;SDS011;9168;51.194;6.840;2023-07-31T08:00:51;13.18;;;5.55;;
18082;SDS011;9168;51.194;6.840;2023-07-31T08:03:19;24.15;;;5.68;;
18082;SDS011;9168;51.194;6.840;2023-07-31T08:05:46;10.82;;;4.63;;
18082;SDS011;9168;51.194;6.840;2023-07-31T08:08:14;13.90;;;5.53;;
18082;SDS011;9168;51.194;6.840;2023-07-31T08:10:41;11.60;;;5.00;;
18082;SDS011;9168;51.194;6.840;2023-07-31T08:13:09;19.52;;;5.40;;
18082;SDS011;9168;51.194;6.840;2023-07-31T08:15:37;14.57;;;4.80;;
18082;SDS011;9168;51.194;6.840;2023-07-31T08:18:04;13.40;;;4.50;;
18082;SDS011;9168;51.194;6.840;2023-07-31T08:20:32;11.15;;;4.82;;
18082;SDS011;9168;51.194;6.840;2023-07-31T08:22:59;13.77;;;4.40;;
18082;SDS011;9168;51.194;6.840;2023-07-31T08:25:26;14.07;;;4.97;;
18082;SDS011;9168;51.194;6.840;2023-07-31T08:27:53;12.63;;;4.80;;
18082;SDS011;9168;51.194;6.840;2023-07-31T08:30:20;16.42;;;4.60;;
18082;SDS011;9168;51.194;6.840;2023-07-31T08:32:48;17.63;;;4.70;;
18082;SDS011;9168;51.194;6.840;2023-07-31T08:35:15;12.43;;;4.20;;
18082;SDS011;9168;51.194;6.840;2023-07-31T08:37:43;13.00;;;4.40;;
18082;SDS011;9168;51.194;6.840;2023-07-31T08:40:11;8.77;;;3.88;;
18082;SDS011;9168;51.194;6.840;2023-07-31T08:42:43;14.43;;;4.60;;
18082;SDS011;9168;51.194;6.840;2023-07-31T08:45:11;10.80;;;3.97;;
18082;SDS011;9168;51.194;6.840;2023-07-31T08:47:41;12.55;;;4.10;;
18082;SDS011;9168;51.194;6.840;2023-07-31T08:50:10;13.23;;;3.92;;
18082;SDS011;9168;51.194;6.840;2023-07-31T08:52:38;12.40;;;4.50;;
18082;SDS011;9168;51.194;6.840;2023-07-31T08:55:08;11.32;;;3.75;;
18082;SDS011;9168;51.194;6.840;2023-07-31T08:57:35;12.18;;;4.00;;
18082;SDS011;9168;51.194;6.840;2023-07-31T09:00:04;17.45;;;4.15;;
18082;SDS011;9168;51.194;6.840;2023-07-31T09:02:34;12.23;;;4.18;;
18082;SDS011;9168;51.194;6.840;2023-07-31T09:05:05;9.90;;;3.65;;
18082;SDS011;9168;51.194;6.840;2023-07-31T09:07:33;16.52;;;3.97;;
18082;SDS011;9168;51.194;6.840;2023-07-31T09:10:01;13.13;;;3.85;;
18082;SDS011;9168;51.194;6.840;2023-07-31T09:12:29;10.82;;;3.90;;
18082;SDS011;9168;51.194;6.840;2023-07-31T09:14:57;11.38;;;3.75;;
18082;SDS011;9168;51.194;6.840;2023-07-31T09:17:30;14.52;;;4.18;;
18082;SDS011;9168;51.194;6.840;2023-07-31T09:20:01;9.93;;;4.20;;
18082;SDS011;9168;51.194;6.840;2023-07-31T09:22:40;11.07;;;4.53;;
18082;SDS011;9168;51.194;6.840;2023-07-31T09:25:13;12.65;;;3.95;;
18082;SDS011;9168;51.194;6.840;2023-07-31T09:27:50;14.15;;;4.68;;
18082;SDS011;9168;51.194;6.840;2023-07-31T09:30:19;14.68;;;4.72;;
18082;SDS011;9168;51.194;6.840;2023-07-31T09:32:47;12.07;;;4.47;;
18082;SDS011;9168;51.194;6.840;2023-07-31T09:35:18;11.63;;;4.25;;
18082;SDS011;9168;51.194;6.840;2023-07-31T09:37:50;11.18;;;3.80;;
18082;SDS011;9168;51.194;6.840;2023-07-31T09:40:30;11.75;;;4.18;;
18082;SDS011;9168;51.194;6.840;2023-07-31T09:43:00;10.90;;;4.20;;
18082;SDS011;9168;51.194;6.840;2023-07-31T09:45:28;9.95;;;4.28;;
18082;SDS011;9168;51.194;6.840;2023-07-31T09:47:55;13.02;;;4.70;;
18082;SDS011;9168;51.194;6.840;2023-07-31T09:50:23;9.82;;;4.20;;
18082;SDS011;9168;51.194;6.840;2023-07-31T09:52:51;9.13;;;4.18;;
18082;SDS011;9168;51.194;6.840;2023-07-31T09:55:18;9.77;;;3.80;;
18082;SDS011;9168;51.194;6.840;2023-07-31T09:57:46;14.55;;;4.75;;
18082;SDS011;9168;51.194;6.840;2023-07-31T10:00:17;10.07;;;4.03;;
18082;SDS011;9168;51.194;6.840;2023-07-31T10:02:47;13.88;;;4.30;;
18082;SDS011;9168;51.194;6.840;2023-07-31T10:05:14;11.27;;;4.55;;
18082;SDS011;9168;51.194;6.840;2023-07-31T10:07:42;12.77;;;4.22;;
18082;SDS011;9168;51.194;6.840;2023-07-31T10:10:13;13.82;;;4.65;;
18082;SDS011;9168;51.194;6.840;2023-07-31T10:12:42;12.57;;;5.10;;
18082;SDS011;9168;51.194;6.840;2023-07-31T10:15:11;14.77;;;5.05;;
18082;SDS011;9168;51.194;6.840;2023-07-31T10:17:40;14.25;;;4.68;;
18082;SDS011;9168;51.194;6.840;2023-07-31T10:20:08;16.00;;;5.10;;
18082;SDS011;9168;51.194;6.840;2023-07-31T10:22:36;9.10;;;4.20;;
18082;SDS011;9168;51.194;6.840;2023-07-31T10:25:03;13.70;;;4.57;;
18082;SDS011;9168;51.194;6.840;2023-07-31T10:27:33;13.32;;;5.22;;
18082;SDS011;9168;51.194;6.840;2023-07-31T10:30:02;13.27;;;5.30;;
18082;SDS011;9168;51.194;6.840;2023-07-31T10:32:32;16.52;;;5.20;;
18082;SDS011;9168;51.194;6.840;2023-07-31T10:35:00;12.77;;;5.32;;
18082;SDS011;9168;51.194;6.840;2023-07-31T10:37:28;13.60;;;5.25;;
18082;SDS011;9168;51.194;6.840;2023-07-31T10:39:57;17.63;;;5.43;;
18082;SDS011;9168;51.194;6.840;2023-07-31T10:42:32;11.55;;;4.55;;
18082;SDS011;9168;51.194;6.840;2023-07-31T10:45:01;12.80;;;3.85;;
18082;SDS011;9168;51.194;6.840;2023-07-31T10:47:30;11.68;;;4.00;;
18082;SDS011;9168;51.194;6.840;2023-07-31T10:52:57;13.27;;;4.70;;
18082;SDS011;9168;51.194;6.840;2023-07-31T10:55:26;12.40;;;4.50;;
18082;SDS011;9168;51.194;6.840;2023-07-31T10:57:56;9.70;;;3.88;;
18082;SDS011;9168;51.194;6.840;2023-07-31T11:00:25;13.23;;;3.85;;
18082;SDS011;9168;51.194;6.840;2023-07-31T11:02:57;8.80;;;3.35;;
18082;SDS011;9168;51.194;6.840;2023-07-31T11:05:46;9.48;;;3.80;;
18082;SDS011;9168;51.194;6.840;2023-07-31T11:08:19;9.38;;;4.10;;
18082;SDS011;9168;51.194;6.840;2023-07-31T11:10:48;6.30;;;2.85;;
18082;SDS011;9168;51.194;6.840;2023-07-31T11:13:16;8.63;;;3.15;;
18082;SDS011;9168;51.194;6.840;2023-07-31T11:15:43;8.50;;;3.35;;
18082;SDS011;9168;51.194;6.840;2023-07-31T11:18:10;6.97;;;2.78;;
18082;SDS011;9168;51.194;6.840;2023-07-31T11:20:37;5.90;;;2.28;;
18082;SDS011;9168;51.194;6.840;2023-07-31T11:23:09;6.88;;;2.53;;
18082;SDS011;9168;51.194;6.840;2023-07-31T11:25:37;13.27;;;2.88;;
18082;SDS011;9168;51.194;6.840;2023-07-31T11:28:07;5.80;;;2.00;;
18082;SDS011;9168;51.194;6.840;2023-07-31T11:30:35;5.20;;;2.00;;
18082;SDS011;9168;51.194;6.840;2023-07-31T11:33:03;4.28;;;2.17;;
18082;SDS011;9168;51.194;6.840;2023-07-31T11:35:31;11.40;;;2.42;;
18082;SDS011;9168;51.194;6.840;2023-07-31T11:37:58;6.07;;;1.85;;
18082;SDS011;9168;51.194;6.840;2023-07-31T11:40:28;3.47;;;1.73;;
18082;SDS011;9168;51.194;6.840;2023-07-31T11:42:58;5.60;;;1.70;;
18082;SDS011;9168;51.194;6.840;2023-07-31T11:45:30;3.92;;;1.85;;
18082;SDS011;9168;51.194;6.840;2023-07-31T11:47:57;3.42;;;1.85;;
18082;SDS011;9168;51.194;6.840;2023-07-31T11:50:24;2.45;;;1.88;;
18082;SDS011;9168;51.194;6.840;2023-07-31T11:52:52;5.13;;;1.85;;
18082;SDS011;9168;51.194;6.840;2023-07-31T11:55:23;3.05;;;1.70;;
18082;SDS011;9168;51.194;6.840;2023-07-31T11:57:52;4.68;;;2.00;;
18082;SDS011;9168;51.194;6.840;2023-07-31T12:00:23;2.88;;;1.67;;
18082;SDS011;9168;51.194;6.840;2023-07-31T12:02:50;3.63;;;1.77;;
18082;SDS011;9168;51.194;6.840;2023-07-31T12:05:17;7.78;;;1.90;;
18082;SDS011;9168;51.194;6.840;2023-07-31T12:07:45;3.78;;;1.90;;
18082;SDS011;9168;51.194;6.840;2023-07-31T12:10:26;5.15;;;2.25;;
18082;SDS011;9168;51.194;6.840;2023-07-31T12:13:02;6.03;;;2.00;;
18082;SDS011;9168;51.194;6.840;2023-07-31T12:15:34;6.47;;;2.10;;
18082;SDS011;9168;51.194;6.840;2023-07-31T12:18:06;6.68;;;2.20;;
18082;SDS011;9168;51.194;6.840;2023-07-31T12:20:35;6.55;;;2.13;;
18082;SDS011;9168;51.194;6.840;2023-07-31T12:23:06;7.85;;;2.17;;
18082;SDS011;9168;51.194;6.840;2023-07-31T12:25:33;6.57;;;2.45;;
18082;SDS011;9168;51.194;6.840;2023-07-31T12:28:06;3.67;;;2.13;;
18082;SDS011;9168;51.194;6.840;2023-07-31T12:30:36;6.63;;;2.45;;
18082;SDS011;9168;51.194;6.840;2023-07-31T12:33:04;6.57;;;2.30;;
18082;SDS011;9168;51.194;6.840;2023-07-31T12:35:36;4.93;;;2.38;;
18082;SDS011;9168;51.194;6.840;2023-07-31T12:38:03;7.03;;;2.78;;
18082;SDS011;9168;51.194;6.840;2023-07-31T12:40:31;3.58;;;2.22;;
18082;SDS011;9168;51.194;6.840;2023-07-31T12:42:58;6.18;;;2.50;;
18082;SDS011;9168;51.194;6.840;2023-07-31T12:45:28;8.10;;;2.85;;
18082;SDS011;9168;51.194;6.840;2023-07-31T12:47:55;4.72;;;2.17;;
18082;SDS011;9168;51.194;6.840;2023-07-31T12:50:22;6.88;;;2.85;;
18082;SDS011;9168;51.194;6.840;2023-07-31T12:52:50;5.68;;;2.70;;
18082;SDS011;9168;51.194;6.840;2023-07-31T12:55:17;5.63;;;2.67;;
18082;SDS011;9168;51.194;6.840;2023-07-31T12:57:44;5.88;;;2.85;;
18082;SDS011;9168;51.194;6.840;2023-07-31T13:00:11;7.03;;;3.05;;
18082;SDS011;9168;51.194;6.840;2023-07-31T13:02:40;5.43;;;2.70;;
18082;SDS011;9168;51.194;6.840;2023-07-31T13:05:08;7.13;;;3.05;;
18082;SDS011;9168;51.194;6.840;2023-07-31T13:07:35;9.07;;;3.80;;
18082;SDS011;9168;51.194;6.840;2023-07-31T13:10:02;11.88;;;3.50;;
18082;SDS011;9168;51.194;6.840;2023-07-31T13:12:29;6.80;;;3.50;;
18082;SDS011;9168;51.194;6.840;2023-07-31T13:14:56;8.77;;;3.55;;
18082;SDS011;9168;51.194;6.840;2023-07-31T13:17:23;7.22;;;3.40;;
18082;SDS011;9168;51.194;6.840;2023-07-31T13:19:51;8.20;;;3.53;;
18082;SDS011;9168;51.194;6.840;2023-07-31T13:22:18;7.63;;;3.65;;
18082;SDS011;9168;51.194;6.840;2023-07-31T13:24:45;11.32;;;3.83;;
18082;SDS011;9168;51.194;6.840;2023-07-31T13:27:17;7.50;;;4.05;;
18082;SDS011;9168;51.194;6.840;2023-07-31T13:29:47;8.52;;;3.90;;
18082;SDS011;9168;51.194;6.840;2023-07-31T13:32:14;7.80;;;3.65;;
18082;SDS011;9168;51.194;6.840;2023-07-31T13:34:41;7.90;;;3.75;;
18082;SDS011;9168;51.194;6.840;2023-07-31T13:37:10;8.45;;;3.63;;
18082;SDS011;9168;51.194;6.840;2023-07-31T13:39:37;6.85;;;3.60;;
18082;SDS011;9168;51.194;6.840;2023-07-31T13:42:04;8.32;;;4.03;;
18082;SDS011;9168;51.194;6.840;2023-07-31T13:44:33;11.40;;;3.92;;
18082;SDS011;9168;51.194;6.840;2023-07-31T13:47:00;7.22;;;3.17;;
18082;SDS011;9168;51.194;6.840;2023-07-31T13:49:27;6.00;;;3.20;;
18082;SDS011;9168;51.194;6.840;2023-07-31T13:51:54;7.78;;;3.65;;
18082;SDS011;9168;51.194;6.840;2023-07-31T13:54:23;7.05;;;3.53;;
18082;SDS011;9168;51.194;6.840;2023-07-31T13:56:50;5.50;;;3.28;;
18082;SDS011;9168;51.194;6.840;2023-07-31T13:59:18;6.78;;;3.10;;
18082;SDS011;9168;51.194;6.840;2023-07-31T14:01:45;8.73;;;3.33;;
18082;SDS011;9168;51.194;6.840;2023-07-31T14:04:12;5.85;;;2.92;;
18082;SDS011;9168;51.194;6.840;2023-07-31T14:06:40;7.30;;;3.45;;
18082;SDS011;9168;51.194;6.840;2023-07-31T14:09:07;5.57;;;3.30;;
18082;SDS011;9168;51.194;6.840;2023-07-31T14:11:35;9.63;;;3.42;;
18082;SDS011;9168;51.194;6.840;2023-07-31T14:14:02;5.90;;;3.10;;
18082;SDS011;9168;51.194;6.840;2023-07-31T14:16:29;9.15;;;3.33;;
18082;SDS011;9168;51.194;6.840;2023-07-31T14:18:56;9.07;;;3.70;;
18082;SDS011;9168;51.194;6.840;2023-07-31T14:21:24;6.28;;;3.08;;
18082;SDS011;9168;51.194;6.840;2023-07-31T14:23:51;5.65;;;2.83;;
18082;SDS011;9168;51.194;6.840;2023-07-31T14:26:18;8.75;;;3.50;;
18082;SDS011;9168;51.194;6.840;2023-07-31T14:28:47;9.75;;;3.40;;
18082;SDS011;9168;51.194;6.840;2023-07-31T14:31:13;5.85;;;3.13;;
18082;SDS011;9168;51.194;6.840;2023-07-31T14:33:40;6.95;;;3.08;;
18082;SDS011;9168;51.194;6.840;2023-07-31T14:36:07;5.43;;;3.17;;
18082;SDS011;9168;51.194;6.840;2023-07-31T14:38:34;6.05;;;3.35;;
18082;SDS011;9168;51.194;6.840;2023-07-31T14:41:01;7.60;;;3.38;;
18082;SDS011;9168;51.194;6.840;2023-07-31T14:43:28;6.15;;;3.42;;
18082;SDS011;9168;51.194;6.840;2023-07-31T14:45:56;6.68;;;3.55;;
18082;SDS011;9168;51.194;6.840;2023-07-31T14:48:25;9.38;;;4.03;;
18082;SDS011;9168;51.194;6.840;2023-07-31T14:50:52;8.93;;;4.00;;
18082;SDS011;9168;51.194;6.840;2023-07-31T14:53:19;10.40;;;4.35;;
18082;SDS011;9168;51.194;6.840;2023-07-31T14:55:46;8.57;;;4.10;;
18082;SDS011;9168;51.194;6.840;2023-07-31T14:58:12;7.15;;;4.03;;